Quetzal Arrow — C6YT4 — position and weather

sailwx.info

Track history (hours):
 
Tides and Currents Weather Stations Pressure Air Temp Water Temp Dewpoint Dewpoint Depression Visibility Wind Speed Wind Dir Waves Ship Positions

Quetzal Arrow

Last reported at 2017-Nov-20 00:30 UTC. Time now 2017-Nov-20 02:07 UTC.
Position N 51°13' E 002°07'.

Length 200 m; draft 6.5 m.

Type: Cargo ship. MMSI: 311044500.

Date/timePositionNaut miles runAvg speedWind from/ knotsBaromVisibWave heightAir tempDewpointWater temp
2017-Nov-20 00:30N 51°13' E 002°07'713.3
2017-Nov-20 00:00N 51°11' E 001°57'713.2
2017-Nov-19 23:30N 51°08' E 001°48'713.5
2017-Nov-19 23:01N 51°03' E 001°40'713.4
2017-Nov-19 22:30N 50°58' E 001°33'713.3
2017-Nov-19 21:59N 50°52' E 001°28'2412.9
2017-Nov-19 20:09N 50°33' E 001°05'513.5
2017-Nov-19 19:47N 50°30' E 000°60'1213.3
2017-Nov-19 18:51N 50°26' E 000°41'513.3
2017-Nov-19 18:28N 50°25' E 000°33'613.0
2017-Nov-19 18:00N 50°23' E 000°24'612.7
2017-Nov-19 17:30N 50°22' E 000°15'612.6
2017-Nov-19 17:00N 50°20' E 000°05'612.5
2017-Nov-19 16:30N 50°19' W 000°05'612.3
2017-Nov-19 16:00N 50°17' W 000°14'1511.6
2017-Nov-19 14:44N 50°14' W 000°36'311.3
2017-Nov-19 14:28N 50°13' W 000°41'2211.2
2017-Nov-19 12:30N 50°08' W 001°14'612.2
2017-Nov-19 12:00N 50°06' W 001°23'713.0
2017-Nov-19 11:30N 50°04' W 001°33'713.7
2017-Nov-19 11:01N 50°02' W 001°43'714.4
2017-Nov-19 10:30N 50°00' W 001°54'714.8
2017-Nov-19 10:00N 49°57' W 002°05'1815.6
2017-Nov-19 08:53N 49°53' W 002°31'615.3
2017-Nov-19 08:28N 49°51' W 002°41'714.5
2017-Nov-19 08:01N 49°50' W 002°51'814.9
2017-Nov-19 07:30N 49°47' W 003°01'814.8
2017-Nov-19 06:58N 49°43' W 003°12'914.4
2017-Nov-19 06:19N 49°38' W 003°24'1614.9
2017-Nov-19 05:16N 49°31' W 003°45'3215.3
2017-Nov-19 03:09N 49°15' W 004°29'3414.7
2017-Nov-19 00:51N 48°57' W 005°13'514.1
2017-Nov-19 00:30N 48°54' W 005°19'713.6
2017-Nov-19 00:00N 48°51' W 005°27'713.3
2017-Nov-18 23:30N 48°47' W 005°36'713.0
2017-Nov-18 22:57N 48°41' W 005°42'812.7
2017-Nov-18 22:17N 48°33' W 005°48'412.2
2017-Nov-18 21:58N 48°29' W 005°48'612.0
2017-Nov-18 21:27N 48°23' W 005°45'811.9
2017-Nov-18 20:45N 48°15' W 005°42'311.7
2017-Nov-18 20:28N 48°12' W 005°41'712.2
2017-Nov-18 19:55N 48°06' W 005°38'612.1
2017-Nov-18 19:27N 48°01' W 005°34'612.0
2017-Nov-18 18:57N 47°56' W 005°29'611.7
2017-Nov-18 18:26N 47°51' W 005°23'510.8
2017-Nov-18 18:00N 47°48' W 005°18'610.6
2017-Nov-18 17:25N 47°44' W 005°11'4 9.9
2017-Nov-18 17:00N 47°41' W 005°06'510.1
2017-Nov-18 16:30N 47°38' W 005°00'510.3
2017-Nov-18 16:00N 47°35' W 004°54'510.4
2017-Nov-18 15:30N 47°32' W 004°49'611.7
2017-Nov-18 15:00N 47°28' W 004°42'714.2
2017-Nov-18 14:30N 47°23' W 004°34'714.7
2017-Nov-18 14:00N 47°18' W 004°26'714.1
2017-Nov-18 13:30N 47°14' W 004°18'714.5
2017-Nov-18 13:00N 47°09' W 004°10'714.4
2017-Nov-18 12:30N 47°04' W 004°02'714.5
2017-Nov-18 12:00N 46°60' W 003°54'714.4
2017-Nov-18 11:31N 46°55' W 003°46'814.5
2017-Nov-18 10:59N 46°50' W 003°38'714.3
2017-Nov-18 10:30N 46°46' W 003°30'714.2
2017-Nov-18 10:00N 46°42' W 003°21'714.2
2017-Nov-18 09:31N 46°37' W 003°13'714.4
2017-Nov-18 09:00N 46°33' W 003°05'714.3
2017-Nov-18 08:30N 46°28' W 002°58'714.4
2017-Nov-18 07:59N 46°24' W 002°48'714.7
2017-Nov-18 07:30N 46°22' W 002°38'815.1
2017-Nov-18 07:00N 46°20' W 002°28'714.6
2017-Nov-18 06:30N 46°18' W 002°18'714.5
2017-Nov-18 06:00N 46°15' W 002°08'714.4
2017-Nov-18 05:31N 46°12' W 001°58'714.4
2017-Nov-18 05:00N 46°10' W 001°49'713.7
2017-Nov-18 04:31N 46°08' W 001°39'612.0
2017-Nov-18 04:01N 46°07' W 001°30'611.9
2017-Nov-18 03:31N 46°06' W 001°22'5 9.2
2017-Nov-18 03:01N 46°07' W 001°15'2 4.7
2017-Nov-18 02:30N 46°09' W 001°14'0 0.0
2017-Nov-18 01:59N 46°09' W 001°14'0 0.0
2017-Nov-18 01:29N 46°09' W 001°14'0 0.0
2017-Nov-18 00:59N 46°09' W 001°14'0 0.0
2017-Nov-18 00:29N 46°09' W 001°14'0 0.0
2017-Nov-17 23:59N 46°09' W 001°14'0 0.0
2017-Nov-17 23:29N 46°09' W 001°14'0 0.0
2017-Nov-17 22:59N 46°09' W 001°14'0 0.0
2017-Nov-17 22:29N 46°09' W 001°14'0 0.0
2017-Nov-17 21:59N 46°09' W 001°14'0 0.0
2017-Nov-17 21:29N 46°09' W 001°14'0 0.0
2017-Nov-17 20:59N 46°09' W 001°14'0 0.0
2017-Nov-17 20:29N 46°09' W 001°14'0 0.0
2017-Nov-17 19:59N 46°09' W 001°14'0 0.0
2017-Nov-17 19:29N 46°09' W 001°14'0 0.0
2017-Nov-17 18:59N 46°09' W 001°14'0 0.0
2017-Nov-17 18:29N 46°09' W 001°14'0 0.0
2017-Nov-17 17:59N 46°09' W 001°14'0 0.0
2017-Nov-17 17:29N 46°09' W 001°14'0 0.0
2017-Nov-17 16:56N 46°09' W 001°14'0 0.0
2017-Nov-17 16:29N 46°09' W 001°14'0 0.0
2017-Nov-17 15:59N 46°09' W 001°14'0 0.0
2017-Nov-17 15:29N 46°09' W 001°14'0 0.0
2017-Nov-17 14:59N 46°09' W 001°14'0 0.0
2017-Nov-17 14:29N 46°09' W 001°14'0 0.0
2017-Nov-17 13:59N 46°09' W 001°14'0 0.0
2017-Nov-17 13:29N 46°09' W 001°14'0 0.0
2017-Nov-17 12:59N 46°09' W 001°14'0 0.0
2017-Nov-17 12:29N 46°09' W 001°14'0 0.0
2017-Nov-17 11:59N 46°09' W 001°14'0 0.0
2017-Nov-17 11:29N 46°09' W 001°14'0 0.0
2017-Nov-17 10:59N 46°09' W 001°14'0 0.0
2017-Nov-17 10:29N 46°09' W 001°14'0 0.0
2017-Nov-17 09:59N 46°09' W 001°14'0 0.0
2017-Nov-17 09:29N 46°09' W 001°14'0 0.0
2017-Nov-17 08:59N 46°09' W 001°14'0 0.0
2017-Nov-17 08:29N 46°09' W 001°14'0 0.0
2017-Nov-17 07:59N 46°09' W 001°14'0 0.0
2017-Nov-17 07:29N 46°09' W 001°14'0 0.0
2017-Nov-17 06:59N 46°09' W 001°14'0 0.0
2017-Nov-17 06:29N 46°09' W 001°14'0 0.0
2017-Nov-17 05:59N 46°09' W 001°14'0 0.0
2017-Nov-17 05:29N 46°09' W 001°14'0 0.0
2017-Nov-17 04:59N 46°09' W 001°14'0 0.0
2017-Nov-17 04:29N 46°09' W 001°14'0 0.0
2017-Nov-17 03:59N 46°09' W 001°14'0 0.0
2017-Nov-17 03:29N 46°09' W 001°14'0 0.0
2017-Nov-17 02:59N 46°09' W 001°14'0 0.0
2017-Nov-17 02:29N 46°09' W 001°14'0 0.0
2017-Nov-17 01:59N 46°09' W 001°14'0 0.0
2017-Nov-17 01:29N 46°09' W 001°14'0 0.0
2017-Nov-17 00:59N 46°09' W 001°14'0 0.0
2017-Nov-17 00:29N 46°09' W 001°14'0 0.0
2017-Nov-16 23:59N 46°09' W 001°14'0 0.0
2017-Nov-16 23:29N 46°09' W 001°14'0 0.0
2017-Nov-16 22:59N 46°09' W 001°14'0 0.0
2017-Nov-16 22:29N 46°09' W 001°14'0 0.0
2017-Nov-16 21:59N 46°09' W 001°14'0 0.0
2017-Nov-16 21:29N 46°09' W 001°14'0 0.2
2017-Nov-16 21:01N 46°09' W 001°14'2 3.2
2017-Nov-16 20:31N 46°08' W 001°15'3 6.8
2017-Nov-16 20:01N 46°06' W 001°19'4 8.8
2017-Nov-16 19:31N 46°07' W 001°25'510.9
2017-Nov-16 19:01N 46°07' W 001°33'4 8.6
2017-Nov-16 18:31N 46°08' W 001°39'611.7
2017-Nov-16 18:01N 46°06' W 001°47'612.9
2017-Nov-16 17:31N 46°02' W 001°55'713.5
2017-Nov-16 17:01N 45°59' W 002°03'713.6
2017-Nov-16 16:30N 45°57' W 002°13'713.7
2017-Nov-16 16:00N 45°54' W 002°22'713.8
2017-Nov-16 15:30N 45°51' W 002°31'713.9
2017-Nov-16 15:00N 45°48' W 002°40'714.1
2017-Nov-16 14:30N 45°45' W 002°49'714.2
2017-Nov-16 14:00N 45°42' W 002°58'714.1
2017-Nov-16 13:30N 45°39' W 003°07'714.4
2017-Nov-16 13:00N 45°36' W 003°16'714.5
2017-Nov-16 12:30N 45°32' W 003°26'714.4
2017-Nov-16 12:01N 45°29' W 003°35'714.0
2017-Nov-16 11:30N 45°26' W 003°44'713.7
2017-Nov-16 11:00N 45°23' W 003°53'713.9
2017-Nov-16 10:30N 45°20' W 004°02'713.9
2017-Nov-16 10:00N 45°17' W 004°10'815.6
2017-Nov-16 09:30N 45°14' W 004°20'612.0
2017-Nov-16 09:00N 45°11' W 004°28'1113.9
2017-Nov-16 08:13N 45°07' W 004°42'314.1
2017-Nov-16 08:00N 45°05' W 004°46'714.2
2017-Nov-16 07:30N 45°02' W 004°55'714.4
2017-Nov-16 06:59N 44°59' W 005°05'714.2
2017-Nov-16 06:30N 44°56' W 005°13'714.3
2017-Nov-16 06:00N 44°53' W 005°22'714.1
2017-Nov-16 05:30N 44°50' W 005°31'714.3
2017-Nov-16 05:00N 44°46' W 005°40'8914.2
2017-Nov-15 22:43N 44°08' W 007°33'413.8
2017-Nov-15 22:28N 44°06' W 007°37'713.9
2017-Nov-15 21:59N 44°03' W 007°46'1613.7
2017-Nov-15 20:50N 43°56' W 008°05'28612.7
2017-Nov-14 22:26N 39°22' W 009°51'614.0
2017-Nov-14 22:00N 39°16' W 009°52'714.2
2017-Nov-14 21:30N 39°09' W 009°52'713.8
2017-Nov-14 21:00N 39°02' W 009°52'713.7
2017-Nov-14 20:30N 38°55' W 009°52'713.7
2017-Nov-14 20:00N 38°48' W 009°52'713.7
2017-Nov-14 19:30N 38°42' W 009°51'713.3
2017-Nov-14 19:00N 38°35' W 009°50'713.3
2017-Nov-14 18:30N 38°29' W 009°47'612.9
2017-Nov-14 18:00N 38°22' W 009°45'612.7
2017-Nov-14 17:30N 38°16' W 009°44'713.3
2017-Nov-14 17:00N 38°10' W 009°42'713.8
2017-Nov-14 16:30N 38°03' W 009°40'813.7
2017-Nov-14 15:56N 37°55' W 009°38'613.7
2017-Nov-14 15:31N 37°50' W 009°36'813.9
2017-Nov-14 14:54N 37°42' W 009°34'513.9
2017-Nov-14 14:30N 37°36' W 009°32'21413.0
2017-Nov-13 22:00N 35°57' W 005°35'28 1.1
2017-Nov-12 19:32N 36°08' W 005°03'1 1.0
2017-Nov-12 18:43N 36°08' W 005°04'2 0.9
2017-Nov-12 16:52N 36°07' W 005°06'1 1.4
2017-Nov-12 16:30N 36°07' W 005°07'1 1.5
2017-Nov-12 16:00N 36°07' W 005°08'0 0.1
2017-Nov-12 15:30N 36°07' W 005°08'9 5.1
2017-Nov-12 13:45N 36°07' W 004°57'2 2.0
2017-Nov-12 12:34N 36°07' W 004°60'0 2.0
2017-Nov-12 12:29N 36°07' W 004°60'21010.3
2017-Nov-11 16:09N 37°20' W 000°54'214.3
2017-Nov-11 16:00N 37°22' W 000°52'714.4
2017-Nov-11 15:31N 37°26' W 000°46'814.0
2017-Nov-11 14:56N 37°31' W 000°38'614.0
2017-Nov-11 14:31N 37°36' W 000°33'714.0
2017-Nov-11 14:01N 37°42' W 000°29'713.8
2017-Nov-11 13:30N 37°48' W 000°24'  
Track history (hours):
 
Tides and Currents Weather Stations Pressure Air Temp Water Temp Dewpoint Dewpoint Depression Visibility Wind Speed Wind Dir Waves Ship Positions

Quetzal Arrow

Last reported at 2017-Nov-20 00:30 UTC. Time now 2017-Nov-20 02:07 UTC.
Position N 51°13' E 002°07'.

Length 200 m; draft 6.5 m.

Type: Cargo ship. MMSI: 311044500.

Date/timePositionNaut miles runAvg speedWind from/ knotsBaromVisibWave heightAir tempDewpointWater temp
2017-Nov-20 00:30N 51°13' E 002°07'713.3
2017-Nov-20 00:00N 51°11' E 001°57'713.2
2017-Nov-19 23:30N 51°08' E 001°48'713.5
2017-Nov-19 23:01N 51°03' E 001°40'713.4
2017-Nov-19 22:30N 50°58' E 001°33'713.3
2017-Nov-19 21:59N 50°52' E 001°28'2412.9
2017-Nov-19 20:09N 50°33' E 001°05'513.5
2017-Nov-19 19:47N 50°30' E 000°60'1213.3
2017-Nov-19 18:51N 50°26' E 000°41'513.3
2017-Nov-19 18:28N 50°25' E 000°33'613.0
2017-Nov-19 18:00N 50°23' E 000°24'612.7
2017-Nov-19 17:30N 50°22' E 000°15'612.6
2017-Nov-19 17:00N 50°20' E 000°05'612.5
2017-Nov-19 16:30N 50°19' W 000°05'612.3
2017-Nov-19 16:00N 50°17' W 000°14'1511.6
2017-Nov-19 14:44N 50°14' W 000°36'311.3
2017-Nov-19 14:28N 50°13' W 000°41'2211.2
2017-Nov-19 12:30N 50°08' W 001°14'612.2
2017-Nov-19 12:00N 50°06' W 001°23'713.0
2017-Nov-19 11:30N 50°04' W 001°33'713.7
2017-Nov-19 11:01N 50°02' W 001°43'714.4
2017-Nov-19 10:30N 50°00' W 001°54'714.8
2017-Nov-19 10:00N 49°57' W 002°05'1815.6
2017-Nov-19 08:53N 49°53' W 002°31'615.3
2017-Nov-19 08:28N 49°51' W 002°41'714.5
2017-Nov-19 08:01N 49°50' W 002°51'814.9
2017-Nov-19 07:30N 49°47' W 003°01'814.8
2017-Nov-19 06:58N 49°43' W 003°12'914.4
2017-Nov-19 06:19N 49°38' W 003°24'1614.9
2017-Nov-19 05:16N 49°31' W 003°45'3215.3
2017-Nov-19 03:09N 49°15' W 004°29'3414.7
2017-Nov-19 00:51N 48°57' W 005°13'514.1
2017-Nov-19 00:30N 48°54' W 005°19'713.6
2017-Nov-19 00:00N 48°51' W 005°27'713.3
2017-Nov-18 23:30N 48°47' W 005°36'713.0
2017-Nov-18 22:57N 48°41' W 005°42'812.7
2017-Nov-18 22:17N 48°33' W 005°48'412.2
2017-Nov-18 21:58N 48°29' W 005°48'612.0
2017-Nov-18 21:27N 48°23' W 005°45'811.9
2017-Nov-18 20:45N 48°15' W 005°42'311.7
2017-Nov-18 20:28N 48°12' W 005°41'712.2
2017-Nov-18 19:55N 48°06' W 005°38'612.1
2017-Nov-18 19:27N 48°01' W 005°34'612.0
2017-Nov-18 18:57N 47°56' W 005°29'611.7
2017-Nov-18 18:26N 47°51' W 005°23'510.8
2017-Nov-18 18:00N 47°48' W 005°18'610.6
2017-Nov-18 17:25N 47°44' W 005°11'4 9.9
2017-Nov-18 17:00N 47°41' W 005°06'510.1
2017-Nov-18 16:30N 47°38' W 005°00'510.3
2017-Nov-18 16:00N 47°35' W 004°54'510.4
2017-Nov-18 15:30N 47°32' W 004°49'611.7
2017-Nov-18 15:00N 47°28' W 004°42'714.2
2017-Nov-18 14:30N 47°23' W 004°34'714.7
2017-Nov-18 14:00N 47°18' W 004°26'714.1
2017-Nov-18 13:30N 47°14' W 004°18'714.5
2017-Nov-18 13:00N 47°09' W 004°10'714.4
2017-Nov-18 12:30N 47°04' W 004°02'714.5
2017-Nov-18 12:00N 46°60' W 003°54'714.4
2017-Nov-18 11:31N 46°55' W 003°46'814.5
2017-Nov-18 10:59N 46°50' W 003°38'714.3
2017-Nov-18 10:30N 46°46' W 003°30'714.2
2017-Nov-18 10:00N 46°42' W 003°21'714.2
2017-Nov-18 09:31N 46°37' W 003°13'714.4
2017-Nov-18 09:00N 46°33' W 003°05'714.3
2017-Nov-18 08:30N 46°28' W 002°58'714.4
2017-Nov-18 07:59N 46°24' W 002°48'714.7
2017-Nov-18 07:30N 46°22' W 002°38'815.1
2017-Nov-18 07:00N 46°20' W 002°28'714.6
2017-Nov-18 06:30N 46°18' W 002°18'714.5
2017-Nov-18 06:00N 46°15' W 002°08'714.4
2017-Nov-18 05:31N 46°12' W 001°58'714.4
2017-Nov-18 05:00N 46°10' W 001°49'713.7
2017-Nov-18 04:31N 46°08' W 001°39'612.0
2017-Nov-18 04:01N 46°07' W 001°30'611.9
2017-Nov-18 03:31N 46°06' W 001°22'5 9.2
2017-Nov-18 03:01N 46°07' W 001°15'2 4.7
2017-Nov-18 02:30N 46°09' W 001°14'0 0.0
2017-Nov-18 01:59N 46°09' W 001°14'0 0.0
2017-Nov-18 01:29N 46°09' W 001°14'0 0.0
2017-Nov-18 00:59N 46°09' W 001°14'0 0.0
2017-Nov-18 00:29N 46°09' W 001°14'0 0.0
2017-Nov-17 23:59N 46°09' W 001°14'0 0.0
2017-Nov-17 23:29N 46°09' W 001°14'0 0.0
2017-Nov-17 22:59N 46°09' W 001°14'0 0.0
2017-Nov-17 22:29N 46°09' W 001°14'0 0.0
2017-Nov-17 21:59N 46°09' W 001°14'0 0.0
2017-Nov-17 21:29N 46°09' W 001°14'0 0.0
2017-Nov-17 20:59N 46°09' W 001°14'0 0.0
2017-Nov-17 20:29N 46°09' W 001°14'0 0.0
2017-Nov-17 19:59N 46°09' W 001°14'0 0.0
2017-Nov-17 19:29N 46°09' W 001°14'0 0.0
2017-Nov-17 18:59N 46°09' W 001°14'0 0.0
2017-Nov-17 18:29N 46°09' W 001°14'0 0.0
2017-Nov-17 17:59N 46°09' W 001°14'0 0.0
2017-Nov-17 17:29N 46°09' W 001°14'0 0.0
2017-Nov-17 16:56N 46°09' W 001°14'0 0.0
2017-Nov-17 16:29N 46°09' W 001°14'0 0.0
2017-Nov-17 15:59N 46°09' W 001°14'0 0.0
2017-Nov-17 15:29N 46°09' W 001°14'0 0.0
2017-Nov-17 14:59N 46°09' W 001°14'0 0.0
2017-Nov-17 14:29N 46°09' W 001°14'0 0.0
2017-Nov-17 13:59N 46°09' W 001°14'0 0.0
2017-Nov-17 13:29N 46°09' W 001°14'0 0.0
2017-Nov-17 12:59N 46°09' W 001°14'0 0.0
2017-Nov-17 12:29N 46°09' W 001°14'0 0.0
2017-Nov-17 11:59N 46°09' W 001°14'0 0.0
2017-Nov-17 11:29N 46°09' W 001°14'0 0.0
2017-Nov-17 10:59N 46°09' W 001°14'0 0.0
2017-Nov-17 10:29N 46°09' W 001°14'0 0.0
2017-Nov-17 09:59N 46°09' W 001°14'0 0.0
2017-Nov-17 09:29N 46°09' W 001°14'0 0.0
2017-Nov-17 08:59N 46°09' W 001°14'0 0.0
2017-Nov-17 08:29N 46°09' W 001°14'0 0.0
2017-Nov-17 07:59N 46°09' W 001°14'0 0.0
2017-Nov-17 07:29N 46°09' W 001°14'0 0.0
2017-Nov-17 06:59N 46°09' W 001°14'0 0.0
2017-Nov-17 06:29N 46°09' W 001°14'0 0.0
2017-Nov-17 05:59N 46°09' W 001°14'0 0.0
2017-Nov-17 05:29N 46°09' W 001°14'0 0.0
2017-Nov-17 04:59N 46°09' W 001°14'0 0.0
2017-Nov-17 04:29N 46°09' W 001°14'0 0.0
2017-Nov-17 03:59N 46°09' W 001°14'0 0.0
2017-Nov-17 03:29N 46°09' W 001°14'0 0.0
2017-Nov-17 02:59N 46°09' W 001°14'0 0.0
2017-Nov-17 02:29N 46°09' W 001°14'0 0.0
2017-Nov-17 01:59N 46°09' W 001°14'0 0.0
2017-Nov-17 01:29N 46°09' W 001°14'0 0.0
2017-Nov-17 00:59N 46°09' W 001°14'0 0.0
2017-Nov-17 00:29N 46°09' W 001°14'0 0.0
2017-Nov-16 23:59N 46°09' W 001°14'0 0.0
2017-Nov-16 23:29N 46°09' W 001°14'0 0.0
2017-Nov-16 22:59N 46°09' W 001°14'0 0.0
2017-Nov-16 22:29N 46°09' W 001°14'0 0.0
2017-Nov-16 21:59N 46°09' W 001°14'0 0.0
2017-Nov-16 21:29N 46°09' W 001°14'0 0.2
2017-Nov-16 21:01N 46°09' W 001°14'2 3.2
2017-Nov-16 20:31N 46°08' W 001°15'3 6.8
2017-Nov-16 20:01N 46°06' W 001°19'4 8.8
2017-Nov-16 19:31N 46°07' W 001°25'510.9
2017-Nov-16 19:01N 46°07' W 001°33'4 8.6
2017-Nov-16 18:31N 46°08' W 001°39'611.7
2017-Nov-16 18:01N 46°06' W 001°47'612.9
2017-Nov-16 17:31N 46°02' W 001°55'713.5
2017-Nov-16 17:01N 45°59' W 002°03'713.6
2017-Nov-16 16:30N 45°57' W 002°13'713.7
2017-Nov-16 16:00N 45°54' W 002°22'713.8
2017-Nov-16 15:30N 45°51' W 002°31'713.9
2017-Nov-16 15:00N 45°48' W 002°40'714.1
2017-Nov-16 14:30N 45°45' W 002°49'714.2
2017-Nov-16 14:00N 45°42' W 002°58'714.1
2017-Nov-16 13:30N 45°39' W 003°07'714.4
2017-Nov-16 13:00N 45°36' W 003°16'714.5
2017-Nov-16 12:30N 45°32' W 003°26'714.4
2017-Nov-16 12:01N 45°29' W 003°35'714.0
2017-Nov-16 11:30N 45°26' W 003°44'713.7
2017-Nov-16 11:00N 45°23' W 003°53'713.9
2017-Nov-16 10:30N 45°20' W 004°02'713.9
2017-Nov-16 10:00N 45°17' W 004°10'815.6
2017-Nov-16 09:30N 45°14' W 004°20'612.0
2017-Nov-16 09:00N 45°11' W 004°28'1113.9
2017-Nov-16 08:13N 45°07' W 004°42'314.1
2017-Nov-16 08:00N 45°05' W 004°46'714.2
2017-Nov-16 07:30N 45°02' W 004°55'714.4
2017-Nov-16 06:59N 44°59' W 005°05'714.2
2017-Nov-16 06:30N 44°56' W 005°13'714.3
2017-Nov-16 06:00N 44°53' W 005°22'714.1
2017-Nov-16 05:30N 44°50' W 005°31'714.3
2017-Nov-16 05:00N 44°46' W 005°40'8914.2
2017-Nov-15 22:43N 44°08' W 007°33'413.8
2017-Nov-15 22:28N 44°06' W 007°37'713.9
2017-Nov-15 21:59N 44°03' W 007°46'1613.7
2017-Nov-15 20:50N 43°56' W 008°05'28612.7
2017-Nov-14 22:26N 39°22' W 009°51'614.0
2017-Nov-14 22:00N 39°16' W 009°52'714.2
2017-Nov-14 21:30N 39°09' W 009°52'713.8
2017-Nov-14 21:00N 39°02' W 009°52'713.7
2017-Nov-14 20:30N 38°55' W 009°52'713.7
2017-Nov-14 20:00N 38°48' W 009°52'713.7
2017-Nov-14 19:30N 38°42' W 009°51'713.3
2017-Nov-14 19:00N 38°35' W 009°50'713.3
2017-Nov-14 18:30N 38°29' W 009°47'612.9
2017-Nov-14 18:00N 38°22' W 009°45'612.7
2017-Nov-14 17:30N 38°16' W 009°44'713.3
2017-Nov-14 17:00N 38°10' W 009°42'713.8
2017-Nov-14 16:30N 38°03' W 009°40'813.7
2017-Nov-14 15:56N 37°55' W 009°38'613.7
2017-Nov-14 15:31N 37°50' W 009°36'813.9
2017-Nov-14 14:54N 37°42' W 009°34'513.9
2017-Nov-14 14:30N 37°36' W 009°32'21413.0
2017-Nov-13 22:00N 35°57' W 005°35'28 1.1
2017-Nov-12 19:32N 36°08' W 005°03'1 1.0
2017-Nov-12 18:43N 36°08' W 005°04'2 0.9
2017-Nov-12 16:52N 36°07' W 005°06'1 1.4
2017-Nov-12 16:30N 36°07' W 005°07'1 1.5
2017-Nov-12 16:00N 36°07' W 005°08'0 0.1
2017-Nov-12 15:30N 36°07' W 005°08'9 5.1
2017-Nov-12 13:45N 36°07' W 004°57'2 2.0
2017-Nov-12 12:34N 36°07' W 004°60'0 2.0
2017-Nov-12 12:29N 36°07' W 004°60'21010.3
2017-Nov-11 16:09N 37°20' W 000°54'214.3
2017-Nov-11 16:00N 37°22' W 000°52'714.4
2017-Nov-11 15:31N 37°26' W 000°46'814.0
2017-Nov-11 14:56N 37°31' W 000°38'614.0
2017-Nov-11 14:31N 37°36' W 000°33'714.0
2017-Nov-11 14:01N 37°42' W 000°29'713.8
2017-Nov-11 13:30N 37°48' W 000°24'  

Dump ship's entire track history